sensor_id;sensor_type;location;lat;lon;timestamp;P1;durP1;ratioP1;P2;durP2;ratioP2
21505;SDS011;10914;48.886;9.394;2022-07-17T00:01:17;33.07;;;30.97;;
21505;SDS011;10914;48.886;9.394;2022-07-17T00:03:42;32.10;;;30.37;;
21505;SDS011;10914;48.886;9.394;2022-07-17T00:06:07;31.93;;;30.13;;
21505;SDS011;10914;48.886;9.394;2022-07-17T00:08:32;32.03;;;30.23;;
21505;SDS011;10914;48.886;9.394;2022-07-17T00:10:58;32.65;;;30.65;;
21505;SDS011;10914;48.886;9.394;2022-07-17T00:13:23;33.20;;;31.15;;
21505;SDS011;10914;48.886;9.394;2022-07-17T00:15:49;32.30;;;30.30;;
21505;SDS011;10914;48.886;9.394;2022-07-17T00:18:14;30.70;;;28.90;;
21505;SDS011;10914;48.886;9.394;2022-07-17T00:20:39;29.92;;;28.23;;
21505;SDS011;10914;48.886;9.394;2022-07-17T00:23:04;30.70;;;28.77;;
21505;SDS011;10914;48.886;9.394;2022-07-17T00:25:29;34.60;;;32.47;;
21505;SDS011;10914;48.886;9.394;2022-07-17T00:27:57;31.60;;;29.77;;
21505;SDS011;10914;48.886;9.394;2022-07-17T00:30:22;29.42;;;27.67;;
21505;SDS011;10914;48.886;9.394;2022-07-17T00:32:47;29.25;;;27.55;;
21505;SDS011;10914;48.886;9.394;2022-07-17T00:35:12;28.77;;;26.97;;
21505;SDS011;10914;48.886;9.394;2022-07-17T00:37:39;34.25;;;32.25;;
21505;SDS011;10914;48.886;9.394;2022-07-17T00:40:05;34.47;;;32.47;;
21505;SDS011;10914;48.886;9.394;2022-07-17T00:42:30;29.60;;;27.88;;
21505;SDS011;10914;48.886;9.394;2022-07-17T00:44:55;29.47;;;27.77;;
21505;SDS011;10914;48.886;9.394;2022-07-17T00:47:21;28.00;;;26.30;;
21505;SDS011;10914;48.886;9.394;2022-07-17T00:49:47;29.42;;;27.60;;
21505;SDS011;10914;48.886;9.394;2022-07-17T00:52:13;30.40;;;28.67;;
21505;SDS011;10914;48.886;9.394;2022-07-17T00:54:38;31.17;;;29.15;;
21505;SDS011;10914;48.886;9.394;2022-07-17T00:57:06;30.40;;;28.58;;
21505;SDS011;10914;48.886;9.394;2022-07-17T00:59:32;29.15;;;27.45;;
21505;SDS011;10914;48.886;9.394;2022-07-17T01:01:58;28.60;;;26.80;;
21505;SDS011;10914;48.886;9.394;2022-07-17T01:04:23;29.97;;;28.17;;
21505;SDS011;10914;48.886;9.394;2022-07-17T01:06:48;30.25;;;28.55;;
21505;SDS011;10914;48.886;9.394;2022-07-17T01:09:13;31.20;;;29.23;;
21505;SDS011;10914;48.886;9.394;2022-07-17T01:11:39;29.10;;;27.33;;
21505;SDS011;10914;48.886;9.394;2022-07-17T01:14:04;28.33;;;26.63;;
21505;SDS011;10914;48.886;9.394;2022-07-17T01:16:30;28.52;;;26.73;;
21505;SDS011;10914;48.886;9.394;2022-07-17T01:18:55;29.00;;;27.20;;
21505;SDS011;10914;48.886;9.394;2022-07-17T01:21:21;29.17;;;27.42;;
21505;SDS011;10914;48.886;9.394;2022-07-17T01:23:46;30.27;;;28.33;;
21505;SDS011;10914;48.886;9.394;2022-07-17T01:26:11;31.93;;;30.07;;
21505;SDS011;10914;48.886;9.394;2022-07-17T01:28:36;32.78;;;30.83;;
21505;SDS011;10914;48.886;9.394;2022-07-17T01:31:01;32.73;;;30.83;;
21505;SDS011;10914;48.886;9.394;2022-07-17T01:33:28;33.33;;;31.42;;
21505;SDS011;10914;48.886;9.394;2022-07-17T01:35:53;33.90;;;31.63;;
21505;SDS011;10914;48.886;9.394;2022-07-17T01:38:18;34.40;;;32.30;;
21505;SDS011;10914;48.886;9.394;2022-07-17T01:40:44;34.38;;;32.30;;
21505;SDS011;10914;48.886;9.394;2022-07-17T01:43:09;33.83;;;31.83;;
21505;SDS011;10914;48.886;9.394;2022-07-17T01:45:34;34.00;;;31.90;;
21505;SDS011;10914;48.886;9.394;2022-07-17T01:47:59;31.50;;;29.60;;
21505;SDS011;10914;48.886;9.394;2022-07-17T01:50:25;32.03;;;30.03;;
21505;SDS011;10914;48.886;9.394;2022-07-17T01:52:50;31.70;;;29.70;;
21505;SDS011;10914;48.886;9.394;2022-07-17T01:55:15;30.77;;;28.95;;
21505;SDS011;10914;48.886;9.394;2022-07-17T01:57:41;35.08;;;33.03;;
21505;SDS011;10914;48.886;9.394;2022-07-17T02:00:08;37.00;;;34.75;;
21505;SDS011;10914;48.886;9.394;2022-07-17T02:02:34;32.85;;;30.85;;
21505;SDS011;10914;48.886;9.394;2022-07-17T02:05:00;39.40;;;37.20;;
21505;SDS011;10914;48.886;9.394;2022-07-17T02:07:25;35.10;;;33.10;;
21505;SDS011;10914;48.886;9.394;2022-07-17T02:09:50;35.95;;;33.95;;
21505;SDS011;10914;48.886;9.394;2022-07-17T02:12:15;35.08;;;32.72;;
21505;SDS011;10914;48.886;9.394;2022-07-17T02:14:40;42.35;;;39.97;;
21505;SDS011;10914;48.886;9.394;2022-07-17T02:17:06;39.83;;;37.47;;
21505;SDS011;10914;48.886;9.394;2022-07-17T02:19:31;40.45;;;38.15;;
21505;SDS011;10914;48.886;9.394;2022-07-17T02:21:56;47.13;;;44.50;;
21505;SDS011;10914;48.886;9.394;2022-07-17T02:24:21;42.13;;;39.67;;
21505;SDS011;10914;48.886;9.394;2022-07-17T02:26:47;41.97;;;39.60;;
21505;SDS011;10914;48.886;9.394;2022-07-17T02:29:12;42.50;;;40.08;;
21505;SDS011;10914;48.886;9.394;2022-07-17T02:31:37;34.78;;;32.60;;
21505;SDS011;10914;48.886;9.394;2022-07-17T02:34:02;32.15;;;30.35;;
21505;SDS011;10914;48.886;9.394;2022-07-17T02:36:28;34.63;;;32.63;;
21505;SDS011;10914;48.886;9.394;2022-07-17T02:38:53;34.15;;;31.80;;
21505;SDS011;10914;48.886;9.394;2022-07-17T02:41:18;32.75;;;30.75;;
21505;SDS011;10914;48.886;9.394;2022-07-17T02:43:43;38.70;;;36.53;;
21505;SDS011;10914;48.886;9.394;2022-07-17T02:46:09;36.47;;;34.47;;
21505;SDS011;10914;48.886;9.394;2022-07-17T02:48:34;31.25;;;29.55;;
21505;SDS011;10914;48.886;9.394;2022-07-17T02:50:59;38.58;;;36.47;;
21505;SDS011;10914;48.886;9.394;2022-07-17T02:53:24;36.03;;;34.03;;
21505;SDS011;10914;48.886;9.394;2022-07-17T02:55:50;34.17;;;32.17;;
21505;SDS011;10914;48.886;9.394;2022-07-17T02:58:15;32.07;;;30.23;;
21505;SDS011;10914;48.886;9.394;2022-07-17T03:00:40;31.07;;;29.10;;
21505;SDS011;10914;48.886;9.394;2022-07-17T03:03:05;31.65;;;29.85;;
21505;SDS011;10914;48.886;9.394;2022-07-17T03:05:31;31.95;;;30.02;;
21505;SDS011;10914;48.886;9.394;2022-07-17T03:07:56;31.10;;;29.27;;
21505;SDS011;10914;48.886;9.394;2022-07-17T03:10:21;31.35;;;29.30;;
21505;SDS011;10914;48.886;9.394;2022-07-17T03:12:46;30.85;;;29.05;;
21505;SDS011;10914;48.886;9.394;2022-07-17T03:15:11;31.90;;;30.00;;
21505;SDS011;10914;48.886;9.394;2022-07-17T03:17:40;28.95;;;27.25;;
21505;SDS011;10914;48.886;9.394;2022-07-17T03:20:05;34.88;;;32.80;;
21505;SDS011;10914;48.886;9.394;2022-07-17T03:22:31;31.88;;;30.05;;
21505;SDS011;10914;48.886;9.394;2022-07-17T03:24:56;34.22;;;32.22;;
21505;SDS011;10914;48.886;9.394;2022-07-17T03:27:21;34.30;;;32.15;;
21505;SDS011;10914;48.886;9.394;2022-07-17T03:29:46;32.80;;;30.87;;
21505;SDS011;10914;48.886;9.394;2022-07-17T03:32:11;34.67;;;32.55;;
21505;SDS011;10914;48.886;9.394;2022-07-17T03:34:37;33.43;;;31.53;;
21505;SDS011;10914;48.886;9.394;2022-07-17T03:37:02;33.30;;;31.50;;
21505;SDS011;10914;48.886;9.394;2022-07-17T03:39:28;33.42;;;31.52;;
21505;SDS011;10914;48.886;9.394;2022-07-17T03:41:53;32.67;;;30.60;;
21505;SDS011;10914;48.886;9.394;2022-07-17T03:44:19;32.17;;;30.13;;
21505;SDS011;10914;48.886;9.394;2022-07-17T03:46:44;33.45;;;31.38;;
21505;SDS011;10914;48.886;9.394;2022-07-17T03:49:09;33.65;;;31.70;;
21505;SDS011;10914;48.886;9.394;2022-07-17T03:51:35;36.03;;;33.92;;
21505;SDS011;10914;48.886;9.394;2022-07-17T03:54:00;34.60;;;32.70;;
21505;SDS011;10914;48.886;9.394;2022-07-17T03:56:25;32.20;;;30.30;;
21505;SDS011;10914;48.886;9.394;2022-07-17T03:58:50;33.67;;;31.67;;
21505;SDS011;10914;48.886;9.394;2022-07-17T04:01:15;33.03;;;31.23;;
21505;SDS011;10914;48.886;9.394;2022-07-17T04:03:41;31.60;;;29.80;;
21505;SDS011;10914;48.886;9.394;2022-07-17T04:06:06;31.60;;;29.80;;
21505;SDS011;10914;48.886;9.394;2022-07-17T04:08:31;32.07;;;30.17;;
21505;SDS011;10914;48.886;9.394;2022-07-17T04:10:56;33.15;;;31.27;;
21505;SDS011;10914;48.886;9.394;2022-07-17T04:13:22;32.47;;;30.58;;
21505;SDS011;10914;48.886;9.394;2022-07-17T04:15:47;32.22;;;30.33;;
21505;SDS011;10914;48.886;9.394;2022-07-17T04:18:21;31.25;;;29.23;;
21505;SDS011;10914;48.886;9.394;2022-07-17T04:20:47;28.85;;;27.25;;
21505;SDS011;10914;48.886;9.394;2022-07-17T04:23:12;30.50;;;28.70;;
21505;SDS011;10914;48.886;9.394;2022-07-17T04:25:38;29.65;;;27.95;;
21505;SDS011;10914;48.886;9.394;2022-07-17T04:28:03;29.55;;;27.85;;
21505;SDS011;10914;48.886;9.394;2022-07-17T04:30:28;30.08;;;28.30;;
21505;SDS011;10914;48.886;9.394;2022-07-17T04:32:53;29.52;;;27.55;;
21505;SDS011;10914;48.886;9.394;2022-07-17T04:35:19;29.70;;;28.00;;
21505;SDS011;10914;48.886;9.394;2022-07-17T04:37:44;30.13;;;28.33;;
21505;SDS011;10914;48.886;9.394;2022-07-17T04:40:09;30.08;;;28.27;;
21505;SDS011;10914;48.886;9.394;2022-07-17T04:42:35;29.55;;;27.95;;
21505;SDS011;10914;48.886;9.394;2022-07-17T04:45:00;29.65;;;27.83;;
21505;SDS011;10914;48.886;9.394;2022-07-17T04:47:25;30.48;;;28.70;;
21505;SDS011;10914;48.886;9.394;2022-07-17T04:49:50;28.52;;;26.77;;
21505;SDS011;10914;48.886;9.394;2022-07-17T04:52:15;28.87;;;27.07;;
21505;SDS011;10914;48.886;9.394;2022-07-17T04:54:41;30.48;;;28.45;;
21505;SDS011;10914;48.886;9.394;2022-07-17T04:57:06;30.27;;;28.67;;
21505;SDS011;10914;48.886;9.394;2022-07-17T04:59:32;27.55;;;26.02;;
21505;SDS011;10914;48.886;9.394;2022-07-17T05:01:57;27.77;;;26.02;;
21505;SDS011;10914;48.886;9.394;2022-07-17T05:04:22;27.85;;;26.13;;
21505;SDS011;10914;48.886;9.394;2022-07-17T05:06:47;27.50;;;25.73;;
21505;SDS011;10914;48.886;9.394;2022-07-17T05:09:12;27.10;;;25.60;;
21505;SDS011;10914;48.886;9.394;2022-07-17T05:11:38;27.40;;;25.80;;
21505;SDS011;10914;48.886;9.394;2022-07-17T05:14:03;28.43;;;26.47;;
21505;SDS011;10914;48.886;9.394;2022-07-17T05:16:28;27.30;;;25.60;;
21505;SDS011;10914;48.886;9.394;2022-07-17T05:18:53;26.77;;;25.27;;
21505;SDS011;10914;48.886;9.394;2022-07-17T05:21:19;27.13;;;25.60;;
21505;SDS011;10914;48.886;9.394;2022-07-17T05:23:44;28.17;;;26.58;;
21505;SDS011;10914;48.886;9.394;2022-07-17T05:26:09;30.10;;;28.47;;
21505;SDS011;10914;48.886;9.394;2022-07-17T05:28:34;30.48;;;28.80;;
21505;SDS011;10914;48.886;9.394;2022-07-17T05:31:00;33.83;;;31.92;;
21505;SDS011;10914;48.886;9.394;2022-07-17T05:33:25;34.20;;;32.27;;
21505;SDS011;10914;48.886;9.394;2022-07-17T05:35:50;33.95;;;32.15;;
21505;SDS011;10914;48.886;9.394;2022-07-17T05:38:15;37.40;;;35.42;;
21505;SDS011;10914;48.886;9.394;2022-07-17T05:40:41;30.30;;;28.70;;
21505;SDS011;10914;48.886;9.394;2022-07-17T05:43:06;28.65;;;27.15;;
21505;SDS011;10914;48.886;9.394;2022-07-17T05:45:31;28.13;;;26.53;;
21505;SDS011;10914;48.886;9.394;2022-07-17T05:47:56;26.98;;;25.55;;
21505;SDS011;10914;48.886;9.394;2022-07-17T05:50:22;25.43;;;24.03;;
21505;SDS011;10914;48.886;9.394;2022-07-17T05:52:47;25.05;;;23.65;;
21505;SDS011;10914;48.886;9.394;2022-07-17T05:55:12;27.45;;;25.95;;
21505;SDS011;10914;48.886;9.394;2022-07-17T05:57:37;25.45;;;24.15;;
21505;SDS011;10914;48.886;9.394;2022-07-17T06:00:03;25.17;;;23.87;;
21505;SDS011;10914;48.886;9.394;2022-07-17T06:02:28;25.02;;;23.67;;
21505;SDS011;10914;48.886;9.394;2022-07-17T06:04:53;26.80;;;25.40;;
21505;SDS011;10914;48.886;9.394;2022-07-17T06:07:18;25.50;;;23.93;;
21505;SDS011;10914;48.886;9.394;2022-07-17T06:09:43;23.93;;;22.63;;
21505;SDS011;10914;48.886;9.394;2022-07-17T06:12:09;24.33;;;23.03;;
21505;SDS011;10914;48.886;9.394;2022-07-17T06:14:34;23.42;;;22.13;;
21505;SDS011;10914;48.886;9.394;2022-07-17T06:16:59;24.42;;;23.10;;
21505;SDS011;10914;48.886;9.394;2022-07-17T06:19:24;25.52;;;24.13;;
21505;SDS011;10914;48.886;9.394;2022-07-17T06:21:49;25.35;;;23.92;;
21505;SDS011;10914;48.886;9.394;2022-07-17T06:24:14;25.60;;;24.30;;
21505;SDS011;10914;48.886;9.394;2022-07-17T06:26:40;26.73;;;25.33;;
21505;SDS011;10914;48.886;9.394;2022-07-17T06:29:05;26.83;;;25.33;;
21505;SDS011;10914;48.886;9.394;2022-07-17T06:31:30;28.77;;;27.13;;
21505;SDS011;10914;48.886;9.394;2022-07-17T06:33:55;27.47;;;26.07;;
21505;SDS011;10914;48.886;9.394;2022-07-17T06:36:20;28.30;;;26.73;;
21505;SDS011;10914;48.886;9.394;2022-07-17T06:38:46;27.10;;;25.73;;
21505;SDS011;10914;48.886;9.394;2022-07-17T06:41:11;27.00;;;25.60;;
21505;SDS011;10914;48.886;9.394;2022-07-17T06:43:36;27.45;;;26.05;;
21505;SDS011;10914;48.886;9.394;2022-07-17T06:46:01;28.17;;;26.57;;
21505;SDS011;10914;48.886;9.394;2022-07-17T06:48:26;23.48;;;22.17;;
21505;SDS011;10914;48.886;9.394;2022-07-17T06:50:52;27.65;;;26.05;;
21505;SDS011;10914;48.886;9.394;2022-07-17T06:53:17;22.93;;;21.73;;
21505;SDS011;10914;48.886;9.394;2022-07-17T06:55:42;22.15;;;20.85;;
21505;SDS011;10914;48.886;9.394;2022-07-17T06:58:07;22.30;;;21.10;;
21505;SDS011;10914;48.886;9.394;2022-07-17T07:00:33;22.90;;;21.53;;
21505;SDS011;10914;48.886;9.394;2022-07-17T07:02:58;22.67;;;21.48;;
21505;SDS011;10914;48.886;9.394;2022-07-17T07:05:24;23.43;;;22.13;;
21505;SDS011;10914;48.886;9.394;2022-07-17T07:07:49;22.33;;;21.10;;
21505;SDS011;10914;48.886;9.394;2022-07-17T07:10:14;22.15;;;20.95;;
21505;SDS011;10914;48.886;9.394;2022-07-17T07:12:39;22.45;;;21.25;;
21505;SDS011;10914;48.886;9.394;2022-07-17T07:15:05;21.85;;;20.63;;
21505;SDS011;10914;48.886;9.394;2022-07-17T07:17:30;21.83;;;20.63;;
21505;SDS011;10914;48.886;9.394;2022-07-17T07:19:56;21.35;;;20.25;;
21505;SDS011;10914;48.886;9.394;2022-07-17T07:22:22;21.35;;;20.05;;
21505;SDS011;10914;48.886;9.394;2022-07-17T07:24:47;22.10;;;20.90;;
21505;SDS011;10914;48.886;9.394;2022-07-17T07:27:12;21.00;;;19.77;;
21505;SDS011;10914;48.886;9.394;2022-07-17T07:29:37;20.67;;;19.67;;
21505;SDS011;10914;48.886;9.394;2022-07-17T07:32:03;21.33;;;20.07;;
21505;SDS011;10914;48.886;9.394;2022-07-17T07:34:28;22.48;;;21.27;;
21505;SDS011;10914;48.886;9.394;2022-07-17T07:36:53;21.33;;;20.03;;
21505;SDS011;10914;48.886;9.394;2022-07-17T07:39:18;22.23;;;20.93;;
21505;SDS011;10914;48.886;9.394;2022-07-17T07:41:43;22.40;;;21.10;;
21505;SDS011;10914;48.886;9.394;2022-07-17T07:44:08;22.43;;;21.33;;
21505;SDS011;10914;48.886;9.394;2022-07-17T07:46:34;22.63;;;21.20;;
21505;SDS011;10914;48.886;9.394;2022-07-17T07:48:59;23.13;;;21.92;;
21505;SDS011;10914;48.886;9.394;2022-07-17T07:51:24;22.27;;;21.17;;
21505;SDS011;10914;48.886;9.394;2022-07-17T07:53:50;22.73;;;21.60;;
21505;SDS011;10914;48.886;9.394;2022-07-17T07:56:15;22.97;;;21.60;;
21505;SDS011;10914;48.886;9.394;2022-07-17T07:58:40;22.98;;;21.70;;
21505;SDS011;10914;48.886;9.394;2022-07-17T08:01:05;22.52;;;21.30;;
21505;SDS011;10914;48.886;9.394;2022-07-17T08:03:30;22.48;;;21.17;;
21505;SDS011;10914;48.886;9.394;2022-07-17T08:05:56;22.23;;;21.00;;
21505;SDS011;10914;48.886;9.394;2022-07-17T08:08:21;21.65;;;20.55;;
21505;SDS011;10914;48.886;9.394;2022-07-17T08:10:46;21.47;;;20.30;;
21505;SDS011;10914;48.886;9.394;2022-07-17T08:13:11;21.17;;;20.08;;
21505;SDS011;10914;48.886;9.394;2022-07-17T08:15:37;21.20;;;20.02;;
21505;SDS011;10914;48.886;9.394;2022-07-17T08:18:02;21.05;;;19.85;;
21505;SDS011;10914;48.886;9.394;2022-07-17T08:20:27;21.67;;;20.48;;
21505;SDS011;10914;48.886;9.394;2022-07-17T08:22:53;20.88;;;19.77;;
21505;SDS011;10914;48.886;9.394;2022-07-17T08:25:18;20.60;;;19.60;;
21505;SDS011;10914;48.886;9.394;2022-07-17T08:27:43;21.92;;;20.67;;
21505;SDS011;10914;48.886;9.394;2022-07-17T08:30:09;21.53;;;20.27;;
21505;SDS011;10914;48.886;9.394;2022-07-17T08:32:35;21.67;;;20.55;;
21505;SDS011;10914;48.886;9.394;2022-07-17T08:35:00;21.20;;;20.00;;
21505;SDS011;10914;48.886;9.394;2022-07-17T08:37:26;20.77;;;19.63;;
21505;SDS011;10914;48.886;9.394;2022-07-17T08:39:51;21.73;;;20.52;;
21505;SDS011;10914;48.886;9.394;2022-07-17T08:42:16;21.42;;;20.33;;
21505;SDS011;10914;48.886;9.394;2022-07-17T08:44:45;20.90;;;19.80;;
21505;SDS011;10914;48.886;9.394;2022-07-17T08:47:13;20.88;;;19.83;;
21505;SDS011;10914;48.886;9.394;2022-07-17T08:49:46;21.35;;;20.15;;
21505;SDS011;10914;48.886;9.394;2022-07-17T08:52:13;20.42;;;19.23;;
21505;SDS011;10914;48.886;9.394;2022-07-17T08:54:38;20.65;;;19.55;;
21505;SDS011;10914;48.886;9.394;2022-07-17T08:57:04;19.80;;;18.70;;
21505;SDS011;10914;48.886;9.394;2022-07-17T08:59:29;20.67;;;19.58;;
21505;SDS011;10914;48.886;9.394;2022-07-17T09:01:55;20.48;;;19.13;;
21505;SDS011;10914;48.886;9.394;2022-07-17T09:04:20;20.40;;;19.30;;
21505;SDS011;10914;48.886;9.394;2022-07-17T09:06:45;19.53;;;18.53;;
21505;SDS011;10914;48.886;9.394;2022-07-17T09:09:11;19.83;;;18.83;;
21505;SDS011;10914;48.886;9.394;2022-07-17T09:11:44;19.90;;;18.80;;
21505;SDS011;10914;48.886;9.394;2022-07-17T09:14:12;20.85;;;19.63;;
21505;SDS011;10914;48.886;9.394;2022-07-17T09:16:54;20.42;;;19.42;;
21505;SDS011;10914;48.886;9.394;2022-07-17T09:19:30;20.55;;;19.55;;
21505;SDS011;10914;48.886;9.394;2022-07-17T09:24:38;20.45;;;19.20;;
21505;SDS011;10914;48.886;9.394;2022-07-17T09:27:03;19.98;;;18.88;;
21505;SDS011;10914;48.886;9.394;2022-07-17T09:29:29;20.60;;;19.30;;
21505;SDS011;10914;48.886;9.394;2022-07-17T09:31:55;19.50;;;18.40;;
21505;SDS011;10914;48.886;9.394;2022-07-17T09:34:20;19.93;;;18.70;;
21505;SDS011;10914;48.886;9.394;2022-07-17T09:36:45;19.92;;;18.85;;
21505;SDS011;10914;48.886;9.394;2022-07-17T09:39:12;19.35;;;18.25;;
21505;SDS011;10914;48.886;9.394;2022-07-17T09:41:37;19.50;;;18.40;;
21505;SDS011;10914;48.886;9.394;2022-07-17T09:44:02;19.17;;;18.17;;
21505;SDS011;10914;48.886;9.394;2022-07-17T09:46:28;20.70;;;19.67;;
21505;SDS011;10914;48.886;9.394;2022-07-17T09:48:55;19.88;;;18.73;;
21505;SDS011;10914;48.886;9.394;2022-07-17T09:51:22;18.60;;;17.40;;
21505;SDS011;10914;48.886;9.394;2022-07-17T09:53:48;19.63;;;18.63;;
21505;SDS011;10914;48.886;9.394;2022-07-17T09:56:15;19.52;;;18.52;;
21505;SDS011;10914;48.886;9.394;2022-07-17T09:58:40;19.35;;;18.40;;
21505;SDS011;10914;48.886;9.394;2022-07-17T10:01:07;19.40;;;18.40;;
21505;SDS011;10914;48.886;9.394;2022-07-17T10:03:33;18.70;;;17.80;;
21505;SDS011;10914;48.886;9.394;2022-07-17T10:05:58;19.02;;;18.00;;
21505;SDS011;10914;48.886;9.394;2022-07-17T10:08:23;19.00;;;18.10;;
21505;SDS011;10914;48.886;9.394;2022-07-17T10:10:49;19.35;;;18.35;;
21505;SDS011;10914;48.886;9.394;2022-07-17T10:13:14;19.02;;;18.00;;
21505;SDS011;10914;48.886;9.394;2022-07-17T10:15:41;22.70;;;21.40;;
21505;SDS011;10914;48.886;9.394;2022-07-17T10:18:07;19.85;;;18.85;;
21505;SDS011;10914;48.886;9.394;2022-07-17T10:20:32;21.27;;;20.20;;
21505;SDS011;10914;48.886;9.394;2022-07-17T10:22:57;20.13;;;19.02;;
21505;SDS011;10914;48.886;9.394;2022-07-17T10:25:23;18.90;;;17.88;;
21505;SDS011;10914;48.886;9.394;2022-07-17T10:27:52;18.87;;;17.97;;
21505;SDS011;10914;48.886;9.394;2022-07-17T10:30:28;19.45;;;18.35;;
21505;SDS011;10914;48.886;9.394;2022-07-17T10:32:58;19.05;;;18.15;;
21505;SDS011;10914;48.886;9.394;2022-07-17T10:35:28;19.10;;;18.00;;
21505;SDS011;10914;48.886;9.394;2022-07-17T10:37:57;18.48;;;17.50;;
21505;SDS011;10914;48.886;9.394;2022-07-17T10:40:23;17.33;;;16.42;;
21505;SDS011;10914;48.886;9.394;2022-07-17T10:45:31;18.98;;;18.02;;
21505;SDS011;10914;48.886;9.394;2022-07-17T10:48:04;19.00;;;17.80;;
21505;SDS011;10914;48.886;9.394;2022-07-17T10:50:32;17.90;;;17.00;;
21505;SDS011;10914;48.886;9.394;2022-07-17T10:55:29;18.20;;;17.27;;
21505;SDS011;10914;48.886;9.394;2022-07-17T10:57:54;18.25;;;17.15;;
21505;SDS011;10914;48.886;9.394;2022-07-17T11:00:20;17.33;;;16.42;;
21505;SDS011;10914;48.886;9.394;2022-07-17T11:02:45;17.75;;;16.85;;
21505;SDS011;10914;48.886;9.394;2022-07-17T11:05:11;18.02;;;17.02;;
21505;SDS011;10914;48.886;9.394;2022-07-17T11:10:14;19.25;;;17.88;;
21505;SDS011;10914;48.886;9.394;2022-07-17T11:12:40;20.77;;;19.57;;
21505;SDS011;10914;48.886;9.394;2022-07-17T11:15:05;16.55;;;15.75;;
21505;SDS011;10914;48.886;9.394;2022-07-17T11:17:30;23.48;;;22.08;;
21505;SDS011;10914;48.886;9.394;2022-07-17T11:19:57;23.43;;;22.03;;
21505;SDS011;10914;48.886;9.394;2022-07-17T11:22:23;19.98;;;18.83;;
21505;SDS011;10914;48.886;9.394;2022-07-17T11:24:54;32.85;;;30.65;;
21505;SDS011;10914;48.886;9.394;2022-07-17T11:27:21;17.48;;;16.38;;
21505;SDS011;10914;48.886;9.394;2022-07-17T11:29:47;17.90;;;17.00;;
21505;SDS011;10914;48.886;9.394;2022-07-17T11:32:13;18.20;;;17.30;;
21505;SDS011;10914;48.886;9.394;2022-07-17T11:34:38;17.38;;;16.20;;
21505;SDS011;10914;48.886;9.394;2022-07-17T11:37:05;15.85;;;15.10;;
21505;SDS011;10914;48.886;9.394;2022-07-17T11:39:37;15.82;;;15.02;;
21505;SDS011;10914;48.886;9.394;2022-07-17T11:42:03;16.10;;;15.20;;
21505;SDS011;10914;48.886;9.394;2022-07-17T11:44:28;16.38;;;15.57;;
21505;SDS011;10914;48.886;9.394;2022-07-17T11:46:53;15.85;;;15.05;;
21505;SDS011;10914;48.886;9.394;2022-07-17T11:49:25;16.13;;;15.32;;
21505;SDS011;10914;48.886;9.394;2022-07-17T11:51:51;15.73;;;14.93;;
21505;SDS011;10914;48.886;9.394;2022-07-17T11:54:16;15.90;;;15.20;;
21505;SDS011;10914;48.886;9.394;2022-07-17T11:56:42;15.17;;;14.47;;
21505;SDS011;10914;48.886;9.394;2022-07-17T11:59:08;15.80;;;15.10;;
21505;SDS011;10914;48.886;9.394;2022-07-17T12:01:37;15.45;;;14.70;;
21505;SDS011;10914;48.886;9.394;2022-07-17T12:04:03;15.45;;;14.65;;
21505;SDS011;10914;48.886;9.394;2022-07-17T12:06:28;15.20;;;14.48;;
21505;SDS011;10914;48.886;9.394;2022-07-17T12:08:54;15.40;;;14.70;;
21505;SDS011;10914;48.886;9.394;2022-07-17T12:11:19;15.68;;;14.88;;
21505;SDS011;10914;48.886;9.394;2022-07-17T12:13:45;16.13;;;15.23;;
21505;SDS011;10914;48.886;9.394;2022-07-17T12:16:23;16.35;;;15.48;;
21505;SDS011;10914;48.886;9.394;2022-07-17T12:18:55;15.57;;;14.77;;
21505;SDS011;10914;48.886;9.394;2022-07-17T12:21:20;15.23;;;14.43;;
21505;SDS011;10914;48.886;9.394;2022-07-17T12:23:55;15.60;;;14.80;;
21505;SDS011;10914;48.886;9.394;2022-07-17T12:26:20;16.85;;;15.95;;
21505;SDS011;10914;48.886;9.394;2022-07-17T12:28:45;15.30;;;14.50;;
21505;SDS011;10914;48.886;9.394;2022-07-17T12:31:11;15.38;;;14.57;;
21505;SDS011;10914;48.886;9.394;2022-07-17T12:33:37;15.95;;;15.15;;
21505;SDS011;10914;48.886;9.394;2022-07-17T12:36:02;16.15;;;15.32;;
21505;SDS011;10914;48.886;9.394;2022-07-17T12:38:27;15.30;;;14.40;;
21505;SDS011;10914;48.886;9.394;2022-07-17T12:40:53;15.55;;;14.75;;
21505;SDS011;10914;48.886;9.394;2022-07-17T12:43:18;14.95;;;14.25;;
21505;SDS011;10914;48.886;9.394;2022-07-17T12:45:43;15.20;;;14.23;;
21505;SDS011;10914;48.886;9.394;2022-07-17T12:48:09;14.30;;;13.60;;
21505;SDS011;10914;48.886;9.394;2022-07-17T12:50:34;14.80;;;14.10;;
21505;SDS011;10914;48.886;9.394;2022-07-17T12:52:59;14.80;;;14.00;;
21505;SDS011;10914;48.886;9.394;2022-07-17T12:55:24;14.60;;;13.70;;
21505;SDS011;10914;48.886;9.394;2022-07-17T12:57:50;13.90;;;13.20;;
21505;SDS011;10914;48.886;9.394;2022-07-17T13:00:15;14.60;;;13.90;;
21505;SDS011;10914;48.886;9.394;2022-07-17T13:02:40;14.33;;;13.50;;
21505;SDS011;10914;48.886;9.394;2022-07-17T13:05:06;14.53;;;13.70;;
21505;SDS011;10914;48.886;9.394;2022-07-17T13:07:31;14.43;;;13.73;;
21505;SDS011;10914;48.886;9.394;2022-07-17T13:09:57;14.52;;;13.73;;
21505;SDS011;10914;48.886;9.394;2022-07-17T13:12:22;14.40;;;13.70;;
21505;SDS011;10914;48.886;9.394;2022-07-17T13:14:47;14.40;;;13.60;;
21505;SDS011;10914;48.886;9.394;2022-07-17T13:17:13;14.10;;;13.40;;
21505;SDS011;10914;48.886;9.394;2022-07-17T13:19:38;14.50;;;13.80;;
21505;SDS011;10914;48.886;9.394;2022-07-17T13:22:03;14.53;;;13.83;;
21505;SDS011;10914;48.886;9.394;2022-07-17T13:24:29;14.70;;;13.90;;
21505;SDS011;10914;48.886;9.394;2022-07-17T13:26:55;14.35;;;13.65;;
21505;SDS011;10914;48.886;9.394;2022-07-17T13:29:20;13.87;;;13.17;;
21505;SDS011;10914;48.886;9.394;2022-07-17T13:31:45;14.07;;;13.38;;
21505;SDS011;10914;48.886;9.394;2022-07-17T13:34:11;14.80;;;14.00;;
21505;SDS011;10914;48.886;9.394;2022-07-17T13:36:36;14.50;;;13.77;;
21505;SDS011;10914;48.886;9.394;2022-07-17T13:39:01;14.30;;;13.60;;
21505;SDS011;10914;48.886;9.394;2022-07-17T13:41:26;14.63;;;13.77;;
21505;SDS011;10914;48.886;9.394;2022-07-17T13:43:52;14.17;;;13.47;;
21505;SDS011;10914;48.886;9.394;2022-07-17T13:46:17;14.40;;;13.60;;
21505;SDS011;10914;48.886;9.394;2022-07-17T13:48:42;14.33;;;13.63;;
21505;SDS011;10914;48.886;9.394;2022-07-17T13:51:07;14.50;;;13.80;;
21505;SDS011;10914;48.886;9.394;2022-07-17T13:53:32;13.93;;;13.23;;
21505;SDS011;10914;48.886;9.394;2022-07-17T13:55:58;13.57;;;12.95;;
21505;SDS011;10914;48.886;9.394;2022-07-17T13:58:23;13.90;;;13.20;;
21505;SDS011;10914;48.886;9.394;2022-07-17T14:00:48;14.07;;;13.38;;
21505;SDS011;10914;48.886;9.394;2022-07-17T14:03:14;13.95;;;13.27;;
21505;SDS011;10914;48.886;9.394;2022-07-17T14:05:39;13.90;;;13.20;;
21505;SDS011;10914;48.886;9.394;2022-07-17T14:08:04;14.33;;;13.47;;
21505;SDS011;10914;48.886;9.394;2022-07-17T14:10:29;14.97;;;14.27;;
21505;SDS011;10914;48.886;9.394;2022-07-17T14:12:55;14.73;;;13.87;;
21505;SDS011;10914;48.886;9.394;2022-07-17T14:15:20;14.07;;;13.37;;
21505;SDS011;10914;48.886;9.394;2022-07-17T14:17:45;14.20;;;13.40;;
21505;SDS011;10914;48.886;9.394;2022-07-17T14:20:10;14.90;;;14.10;;
21505;SDS011;10914;48.886;9.394;2022-07-17T14:22:36;14.00;;;13.38;;